sensor_id;sensor_type;location;lat;lon;timestamp;pressure;altitude;pressure_sealevel;temperature;humidity
70555;BME280;58104;52.744;15.242;2022-07-29T00:01:28;101297.23;;;21.67;42.11
70555;BME280;58104;52.744;15.242;2022-07-29T00:03:53;101293.73;;;21.55;42.51
70555;BME280;58104;52.744;15.242;2022-07-29T00:06:19;101290.92;;;21.54;42.31
70555;BME280;58104;52.744;15.242;2022-07-29T00:08:44;101283.82;;;21.58;42.63
70555;BME280;58104;52.744;15.242;2022-07-29T00:11:10;101283.27;;;21.57;42.57
70555;BME280;58104;52.744;15.242;2022-07-29T00:13:35;101278.69;;;21.58;42.49
70555;BME280;58104;52.744;15.242;2022-07-29T00:16:01;101275.21;;;21.47;42.58
70555;BME280;58104;52.744;15.242;2022-07-29T00:18:26;101275.74;;;21.48;42.55
70555;BME280;58104;52.744;15.242;2022-07-29T00:20:51;101275.02;;;21.40;42.80
70555;BME280;58104;52.744;15.242;2022-07-29T00:23:17;101273.84;;;21.29;42.68
70555;BME280;58104;52.744;15.242;2022-07-29T00:25:42;101272.19;;;21.24;43.03
70555;BME280;58104;52.744;15.242;2022-07-29T00:28:07;101271.71;;;21.22;43.14
70555;BME280;58104;52.744;15.242;2022-07-29T00:30:33;101274.46;;;21.19;42.66
70555;BME280;58104;52.744;15.242;2022-07-29T00:32:58;101276.40;;;21.23;42.81
70555;BME280;58104;52.744;15.242;2022-07-29T00:35:24;101278.62;;;21.27;43.25
70555;BME280;58104;52.744;15.242;2022-07-29T00:37:49;101280.12;;;21.37;43.03
70555;BME280;58104;52.744;15.242;2022-07-29T00:40:14;101279.15;;;21.32;42.57
70555;BME280;58104;52.744;15.242;2022-07-29T00:42:43;101283.98;;;21.17;43.07
70555;BME280;58104;52.744;15.242;2022-07-29T00:45:05;101280.72;;;21.22;43.13
70555;BME280;58104;52.744;15.242;2022-07-29T00:47:30;101281.14;;;21.29;43.01
70555;BME280;58104;52.744;15.242;2022-07-29T00:49:56;101282.53;;;21.25;43.14
70555;BME280;58104;52.744;15.242;2022-07-29T00:52:21;101280.09;;;21.29;43.31
70555;BME280;58104;52.744;15.242;2022-07-29T00:54:47;101278.12;;;21.30;43.22
70555;BME280;58104;52.744;15.242;2022-07-29T00:57:12;101277.45;;;21.24;43.26
70555;BME280;58104;52.744;15.242;2022-07-29T00:59:37;101280.73;;;21.23;43.11
70555;BME280;58104;52.744;15.242;2022-07-29T01:02:03;101281.43;;;21.32;43.35
70555;BME280;58104;52.744;15.242;2022-07-29T01:04:28;101280.69;;;21.31;43.06
70555;BME280;58104;52.744;15.242;2022-07-29T01:06:54;101277.12;;;21.33;42.97
70555;BME280;58104;52.744;15.242;2022-07-29T01:09:19;101281.42;;;21.38;43.30
70555;BME280;58104;52.744;15.242;2022-07-29T01:11:46;101281.88;;;21.34;43.22
70555;BME280;58104;52.744;15.242;2022-07-29T01:14:10;101274.03;;;21.34;42.95
70555;BME280;58104;52.744;15.242;2022-07-29T01:16:41;101274.79;;;21.21;42.99
70555;BME280;58104;52.744;15.242;2022-07-29T01:19:07;101271.44;;;21.24;43.12
70555;BME280;58104;52.744;15.242;2022-07-29T01:21:38;101275.14;;;21.29;43.40
70555;BME280;58104;52.744;15.242;2022-07-29T01:26:28;101273.03;;;21.21;43.45
70555;BME280;58104;52.744;15.242;2022-07-29T01:31:10;101269.06;;;21.23;43.26
70555;BME280;58104;52.744;15.242;2022-07-29T01:33:38;101266.08;;;21.23;43.48
70555;BME280;58104;52.744;15.242;2022-07-29T01:35:59;101263.65;;;21.23;43.35
70555;BME280;58104;52.744;15.242;2022-07-29T01:38:25;101263.13;;;21.12;43.78
70555;BME280;58104;52.744;15.242;2022-07-29T01:40:51;101262.71;;;21.13;43.82
70555;BME280;58104;52.744;15.242;2022-07-29T01:43:18;101262.37;;;21.08;44.06
70555;BME280;58104;52.744;15.242;2022-07-29T01:45:43;101263.93;;;21.13;43.96
70555;BME280;58104;52.744;15.242;2022-07-29T01:48:11;101264.25;;;21.19;44.13
70555;BME280;58104;52.744;15.242;2022-07-29T01:50:34;101259.37;;;21.22;44.05
70555;BME280;58104;52.744;15.242;2022-07-29T01:52:59;101259.07;;;21.19;44.52
70555;BME280;58104;52.744;15.242;2022-07-29T01:55:25;101252.63;;;21.10;44.60
70555;BME280;58104;52.744;15.242;2022-07-29T01:57:48;101244.57;;;21.16;44.61
70555;BME280;58104;52.744;15.242;2022-07-29T02:00:13;101242.86;;;21.16;44.78
70555;BME280;58104;52.744;15.242;2022-07-29T02:02:40;101241.18;;;21.03;44.57
70555;BME280;58104;52.744;15.242;2022-07-29T02:05:06;101234.23;;;21.06;44.25
70555;BME280;58104;52.744;15.242;2022-07-29T02:07:31;101229.30;;;21.15;44.34
70555;BME280;58104;52.744;15.242;2022-07-29T02:09:55;101225.05;;;21.09;44.55
70555;BME280;58104;52.744;15.242;2022-07-29T02:12:20;101224.60;;;21.16;44.85
70555;BME280;58104;52.744;15.242;2022-07-29T02:14:51;101226.91;;;21.04;44.75
70555;BME280;58104;52.744;15.242;2022-07-29T02:17:11;101219.86;;;21.05;44.66
70555;BME280;58104;52.744;15.242;2022-07-29T02:19:37;101221.34;;;21.00;44.69
70555;BME280;58104;52.744;15.242;2022-07-29T02:22:02;101223.63;;;21.09;44.44
70555;BME280;58104;52.744;15.242;2022-07-29T02:24:27;101223.76;;;21.16;44.76
70555;BME280;58104;52.744;15.242;2022-07-29T02:26:54;101219.03;;;21.01;44.89
70555;BME280;58104;52.744;15.242;2022-07-29T02:29:20;101219.47;;;20.97;45.31
70555;BME280;58104;52.744;15.242;2022-07-29T02:31:44;101225.92;;;20.96;45.03
70555;BME280;58104;52.744;15.242;2022-07-29T02:34:08;101224.81;;;20.97;45.54
70555;BME280;58104;52.744;15.242;2022-07-29T02:36:34;101222.71;;;21.07;45.54
70555;BME280;58104;52.744;15.242;2022-07-29T02:38:59;101221.67;;;21.07;45.31
70555;BME280;58104;52.744;15.242;2022-07-29T02:41:27;101218.39;;;21.02;45.30
70555;BME280;58104;52.744;15.242;2022-07-29T02:43:53;101213.32;;;21.05;45.57
70555;BME280;58104;52.744;15.242;2022-07-29T02:46:18;101208.84;;;20.94;45.50
70555;BME280;58104;52.744;15.242;2022-07-29T02:48:43;101202.55;;;20.95;45.28
70555;BME280;58104;52.744;15.242;2022-07-29T02:51:10;101204.81;;;21.00;45.40
70555;BME280;58104;52.744;15.242;2022-07-29T02:53:32;101202.71;;;20.96;45.46
70555;BME280;58104;52.744;15.242;2022-07-29T02:55:58;101197.22;;;20.83;45.37
70555;BME280;58104;52.744;15.242;2022-07-29T02:58:24;101197.76;;;20.93;45.72
70555;BME280;58104;52.744;15.242;2022-07-29T03:00:48;101193.32;;;20.96;45.40
70555;BME280;58104;52.744;15.242;2022-07-29T03:03:15;101197.75;;;20.99;45.63
70555;BME280;58104;52.744;15.242;2022-07-29T03:05:38;101200.23;;;21.01;45.74
70555;BME280;58104;52.744;15.242;2022-07-29T03:08:05;101201.65;;;20.91;45.86
70555;BME280;58104;52.744;15.242;2022-07-29T03:10:29;101201.80;;;20.94;45.92
70555;BME280;58104;52.744;15.242;2022-07-29T03:12:55;101200.75;;;21.12;45.71
70555;BME280;58104;52.744;15.242;2022-07-29T03:15:20;101204.09;;;21.10;45.85
70555;BME280;58104;52.744;15.242;2022-07-29T03:17:45;101195.86;;;21.07;45.81
70555;BME280;58104;52.744;15.242;2022-07-29T03:20:11;101195.62;;;21.03;46.06
70555;BME280;58104;52.744;15.242;2022-07-29T03:22:39;101195.60;;;20.95;45.97
70555;BME280;58104;52.744;15.242;2022-07-29T03:25:07;101197.30;;;20.79;46.08
70555;BME280;58104;52.744;15.242;2022-07-29T03:27:26;101204.07;;;20.87;46.42
70555;BME280;58104;52.744;15.242;2022-07-29T03:29:52;101208.07;;;20.93;46.50
70555;BME280;58104;52.744;15.242;2022-07-29T03:32:17;101211.92;;;20.96;46.32
70555;BME280;58104;52.744;15.242;2022-07-29T03:34:42;101216.45;;;20.79;46.56
70555;BME280;58104;52.744;15.242;2022-07-29T03:37:08;101213.28;;;20.83;46.47
70555;BME280;58104;52.744;15.242;2022-07-29T03:39:37;101217.14;;;20.88;46.64
70555;BME280;58104;52.744;15.242;2022-07-29T03:41:59;101217.44;;;20.92;46.68
70555;BME280;58104;52.744;15.242;2022-07-29T03:44:26;101212.91;;;20.94;46.49
70555;BME280;58104;52.744;15.242;2022-07-29T03:46:50;101212.03;;;20.93;46.34
70555;BME280;58104;52.744;15.242;2022-07-29T03:49:16;101218.77;;;20.90;46.61
70555;BME280;58104;52.744;15.242;2022-07-29T03:51:40;101220.89;;;20.85;46.82
70555;BME280;58104;52.744;15.242;2022-07-29T03:54:06;101217.72;;;20.84;46.94
70555;BME280;58104;52.744;15.242;2022-07-29T03:56:36;101215.95;;;20.85;47.09
70555;BME280;58104;52.744;15.242;2022-07-29T03:58:57;101220.86;;;20.96;46.78
70555;BME280;58104;52.744;15.242;2022-07-29T04:01:22;101218.37;;;20.89;46.80
70555;BME280;58104;52.744;15.242;2022-07-29T04:03:48;101217.67;;;21.00;46.76
70555;BME280;58104;52.744;15.242;2022-07-29T04:06:13;101219.26;;;20.99;46.44
70555;BME280;58104;52.744;15.242;2022-07-29T04:08:38;101223.33;;;20.88;45.91
70555;BME280;58104;52.744;15.242;2022-07-29T04:11:04;101222.75;;;20.94;45.76
70555;BME280;58104;52.744;15.242;2022-07-29T04:13:30;101223.63;;;21.02;45.93
70555;BME280;58104;52.744;15.242;2022-07-29T04:15:55;101217.84;;;21.04;45.79
70555;BME280;58104;52.744;15.242;2022-07-29T04:18:20;101226.56;;;20.68;46.29
70555;BME280;58104;52.744;15.242;2022-07-29T04:20:45;101222.47;;;20.72;46.10
70555;BME280;58104;52.744;15.242;2022-07-29T04:23:11;101222.10;;;20.92;45.81
70555;BME280;58104;52.744;15.242;2022-07-29T04:25:38;101227.02;;;20.74;46.11
70555;BME280;58104;52.744;15.242;2022-07-29T04:28:02;101227.90;;;20.73;46.53
70555;BME280;58104;52.744;15.242;2022-07-29T04:30:27;101231.01;;;20.91;46.65
70555;BME280;58104;52.744;15.242;2022-07-29T04:32:52;101234.41;;;20.92;46.75
70555;BME280;58104;52.744;15.242;2022-07-29T04:35:18;101232.19;;;20.91;46.52
70555;BME280;58104;52.744;15.242;2022-07-29T04:37:43;101240.64;;;20.88;46.66
70555;BME280;58104;52.744;15.242;2022-07-29T04:40:09;101240.17;;;20.81;46.77
70555;BME280;58104;52.744;15.242;2022-07-29T04:42:34;101242.99;;;20.95;46.86
70555;BME280;58104;52.744;15.242;2022-07-29T04:44:59;101243.98;;;20.88;46.63
70555;BME280;58104;52.744;15.242;2022-07-29T04:47:25;101239.68;;;20.96;46.55
70555;BME280;58104;52.744;15.242;2022-07-29T04:49:50;101236.68;;;21.06;46.52
70555;BME280;58104;52.744;15.242;2022-07-29T04:52:15;101242.37;;;20.88;46.85
70555;BME280;58104;52.744;15.242;2022-07-29T04:54:41;101243.85;;;20.96;46.45
70555;BME280;58104;52.744;15.242;2022-07-29T04:57:06;101242.60;;;21.33;45.57
70555;BME280;58104;52.744;15.242;2022-07-29T04:59:31;101245.04;;;21.47;45.10
70555;BME280;58104;52.744;15.242;2022-07-29T05:01:56;101246.84;;;21.47;45.01
70555;BME280;58104;52.744;15.242;2022-07-29T05:04:22;101240.50;;;21.59;44.63
70555;BME280;58104;52.744;15.242;2022-07-29T05:06:47;101238.82;;;21.62;44.86
70555;BME280;58104;52.744;15.242;2022-07-29T05:09:13;101235.43;;;21.68;44.55
70555;BME280;58104;52.744;15.242;2022-07-29T05:11:38;101234.33;;;21.71;44.26
70555;BME280;58104;52.744;15.242;2022-07-29T05:14:03;101230.91;;;21.79;44.16
70555;BME280;58104;52.744;15.242;2022-07-29T05:16:29;101231.80;;;21.80;44.10
70555;BME280;58104;52.744;15.242;2022-07-29T05:18:54;101233.15;;;21.86;43.95
70555;BME280;58104;52.744;15.242;2022-07-29T05:21:20;101230.33;;;21.85;43.79
70555;BME280;58104;52.744;15.242;2022-07-29T05:23:45;101230.69;;;21.97;43.55
70555;BME280;58104;52.744;15.242;2022-07-29T05:26:10;101228.34;;;21.90;43.56
70555;BME280;58104;52.744;15.242;2022-07-29T05:28:36;101229.69;;;21.93;43.55
70555;BME280;58104;52.744;15.242;2022-07-29T05:31:01;101224.86;;;22.03;43.37
70555;BME280;58104;52.744;15.242;2022-07-29T05:33:26;101228.47;;;22.04;43.15
70555;BME280;58104;52.744;15.242;2022-07-29T05:35:52;101233.38;;;22.12;43.18
70555;BME280;58104;52.744;15.242;2022-07-29T05:38:17;101233.63;;;22.17;42.87
70555;BME280;58104;52.744;15.242;2022-07-29T05:40:43;101236.81;;;22.30;42.79
70555;BME280;58104;52.744;15.242;2022-07-29T05:43:08;101235.78;;;22.12;42.87
70555;BME280;58104;52.744;15.242;2022-07-29T05:45:33;101236.61;;;22.11;42.85
70555;BME280;58104;52.744;15.242;2022-07-29T05:47:58;101235.95;;;22.17;42.72
70555;BME280;58104;52.744;15.242;2022-07-29T05:50:24;101227.55;;;22.20;42.50
70555;BME280;58104;52.744;15.242;2022-07-29T05:52:49;101224.89;;;22.22;42.53
70555;BME280;58104;52.744;15.242;2022-07-29T05:55:14;101221.63;;;22.30;42.56
70555;BME280;58104;52.744;15.242;2022-07-29T05:57:40;101218.21;;;22.26;42.39
70555;BME280;58104;52.744;15.242;2022-07-29T06:00:07;101221.07;;;22.36;42.36
70555;BME280;58104;52.744;15.242;2022-07-29T06:02:31;101222.00;;;22.26;42.36
70555;BME280;58104;52.744;15.242;2022-07-29T06:04:56;101223.44;;;22.43;42.16
70555;BME280;58104;52.744;15.242;2022-07-29T06:07:21;101220.02;;;22.47;42.15
70555;BME280;58104;52.744;15.242;2022-07-29T06:09:47;101223.89;;;22.54;41.97
70555;BME280;58104;52.744;15.242;2022-07-29T06:12:12;101226.12;;;22.60;41.81
70555;BME280;58104;52.744;15.242;2022-07-29T06:14:38;101223.39;;;22.60;41.79
70555;BME280;58104;52.744;15.242;2022-07-29T06:17:03;101226.10;;;22.62;41.73
70555;BME280;58104;52.744;15.242;2022-07-29T06:19:28;101223.55;;;22.64;41.81
70555;BME280;58104;52.744;15.242;2022-07-29T06:21:54;101227.90;;;22.61;41.78
70555;BME280;58104;52.744;15.242;2022-07-29T06:24:19;101230.15;;;22.57;41.93
70555;BME280;58104;52.744;15.242;2022-07-29T06:26:45;101228.91;;;22.48;41.89
70555;BME280;58104;52.744;15.242;2022-07-29T06:29:10;101229.22;;;22.68;41.69
70555;BME280;58104;52.744;15.242;2022-07-29T06:31:35;101227.63;;;22.73;41.64
70555;BME280;58104;52.744;15.242;2022-07-29T06:34:00;101230.15;;;22.73;41.79
70555;BME280;58104;52.744;15.242;2022-07-29T06:36:26;101232.29;;;22.73;41.58
70555;BME280;58104;52.744;15.242;2022-07-29T06:38:51;101237.50;;;22.76;41.55
70555;BME280;58104;52.744;15.242;2022-07-29T06:41:17;101241.81;;;22.92;41.40
70555;BME280;58104;52.744;15.242;2022-07-29T06:43:43;101248.74;;;22.92;41.35
70555;BME280;58104;52.744;15.242;2022-07-29T06:46:09;101249.66;;;22.90;41.23
70555;BME280;58104;52.744;15.242;2022-07-29T06:48:34;101249.36;;;23.02;40.98
70555;BME280;58104;52.744;15.242;2022-07-29T06:50:58;101247.80;;;23.10;41.12
70555;BME280;58104;52.744;15.242;2022-07-29T06:53:24;101245.81;;;23.14;41.24
70555;BME280;58104;52.744;15.242;2022-07-29T06:55:49;101245.75;;;23.26;40.82
70555;BME280;58104;52.744;15.242;2022-07-29T06:58:14;101245.86;;;23.18;40.83
70555;BME280;58104;52.744;15.242;2022-07-29T07:00:40;101253.16;;;23.04;41.17
70555;BME280;58104;52.744;15.242;2022-07-29T07:03:05;101250.57;;;23.21;40.96
70555;BME280;58104;52.744;15.242;2022-07-29T07:05:31;101248.59;;;23.39;40.65
70555;BME280;58104;52.744;15.242;2022-07-29T07:07:56;101249.53;;;23.38;40.58
70555;BME280;58104;52.744;15.242;2022-07-29T07:10:21;101249.84;;;23.45;40.17
70555;BME280;58104;52.744;15.242;2022-07-29T07:12:46;101247.20;;;23.33;40.35
70555;BME280;58104;52.744;15.242;2022-07-29T07:15:12;101245.51;;;23.48;40.59
70555;BME280;58104;52.744;15.242;2022-07-29T07:17:37;101245.92;;;23.44;40.38
70555;BME280;58104;52.744;15.242;2022-07-29T07:20:04;101246.20;;;23.38;40.29
70555;BME280;58104;52.744;15.242;2022-07-29T07:22:28;101240.41;;;23.32;40.47
70555;BME280;58104;52.744;15.242;2022-07-29T07:24:53;101245.18;;;23.56;40.41
70555;BME280;58104;52.744;15.242;2022-07-29T07:27:18;101245.69;;;23.62;40.28
70555;BME280;58104;52.744;15.242;2022-07-29T07:29:44;101245.70;;;23.45;40.18
70555;BME280;58104;52.744;15.242;2022-07-29T07:32:09;101244.74;;;23.66;39.95
70555;BME280;58104;52.744;15.242;2022-07-29T07:34:35;101244.53;;;23.55;40.41
70555;BME280;58104;52.744;15.242;2022-07-29T07:37:00;101243.90;;;23.64;40.14
70555;BME280;58104;52.744;15.242;2022-07-29T07:39:25;101245.02;;;23.91;40.11
70555;BME280;58104;52.744;15.242;2022-07-29T07:41:51;101247.13;;;23.65;40.39
70555;BME280;58104;52.744;15.242;2022-07-29T07:44:16;101243.09;;;23.60;40.06
70555;BME280;58104;52.744;15.242;2022-07-29T07:46:42;101242.95;;;23.70;40.09
70555;BME280;58104;52.744;15.242;2022-07-29T07:49:07;101245.48;;;23.59;40.38
70555;BME280;58104;52.744;15.242;2022-07-29T07:51:32;101245.72;;;23.84;39.74
70555;BME280;58104;52.744;15.242;2022-07-29T07:53:57;101243.27;;;23.91;39.44
70555;BME280;58104;52.744;15.242;2022-07-29T07:56:23;101244.18;;;23.85;39.42
70555;BME280;58104;52.744;15.242;2022-07-29T07:58:48;101242.93;;;23.75;39.43
70555;BME280;58104;52.744;15.242;2022-07-29T08:01:14;101247.31;;;23.63;39.75
70555;BME280;58104;52.744;15.242;2022-07-29T08:03:39;101247.09;;;23.54;39.84
70555;BME280;58104;52.744;15.242;2022-07-29T08:06:05;101251.29;;;23.72;39.77
70555;BME280;58104;52.744;15.242;2022-07-29T08:08:30;101251.07;;;23.63;39.81
70555;BME280;58104;52.744;15.242;2022-07-29T08:10:55;101246.97;;;23.92;39.41
70555;BME280;58104;52.744;15.242;2022-07-29T08:13:23;101243.75;;;23.86;39.47
70555;BME280;58104;52.744;15.242;2022-07-29T08:15:46;101243.55;;;23.86;39.50
70555;BME280;58104;52.744;15.242;2022-07-29T08:18:11;101244.09;;;23.92;39.21
70555;BME280;58104;52.744;15.242;2022-07-29T08:20:37;101244.01;;;23.82;39.38
70555;BME280;58104;52.744;15.242;2022-07-29T08:23:02;101247.28;;;23.83;39.45
70555;BME280;58104;52.744;15.242;2022-07-29T08:25:27;101249.38;;;24.02;39.09
70555;BME280;58104;52.744;15.242;2022-07-29T08:27:53;101250.57;;;23.93;39.31
70555;BME280;58104;52.744;15.242;2022-07-29T08:30:18;101251.10;;;24.05;39.16
70555;BME280;58104;52.744;15.242;2022-07-29T08:32:43;101249.78;;;24.13;38.84
70555;BME280;58104;52.744;15.242;2022-07-29T08:35:09;101247.33;;;24.03;39.08
70555;BME280;58104;52.744;15.242;2022-07-29T08:37:34;101249.16;;;24.04;39.03
70555;BME280;58104;52.744;15.242;2022-07-29T08:39:59;101248.54;;;24.02;39.20
70555;BME280;58104;52.744;15.242;2022-07-29T08:42:24;101250.97;;;24.25;38.65
70555;BME280;58104;52.744;15.242;2022-07-29T08:44:50;101249.66;;;24.09;38.87
70555;BME280;58104;52.744;15.242;2022-07-29T08:47:15;101248.66;;;24.13;38.77
70555;BME280;58104;52.744;15.242;2022-07-29T08:49:40;101248.30;;;24.33;38.23
70555;BME280;58104;52.744;15.242;2022-07-29T08:52:05;101252.38;;;24.67;37.60
70555;BME280;58104;52.744;15.242;2022-07-29T08:54:30;101247.88;;;24.75;37.48
70555;BME280;58104;52.744;15.242;2022-07-29T08:56:56;101249.49;;;24.79;37.34
70555;BME280;58104;52.744;15.242;2022-07-29T08:59:25;101250.41;;;24.64;37.45
70555;BME280;58104;52.744;15.242;2022-07-29T09:01:46;101242.32;;;24.35;37.97
70555;BME280;58104;52.744;15.242;2022-07-29T09:04:13;101242.65;;;24.29;38.23
70555;BME280;58104;52.744;15.242;2022-07-29T09:06:40;101242.13;;;24.37;38.12
70555;BME280;58104;52.744;15.242;2022-07-29T09:09:02;101243.12;;;24.36;38.12
70555;BME280;58104;52.744;15.242;2022-07-29T09:11:28;101242.39;;;24.13;38.03
70555;BME280;58104;52.744;15.242;2022-07-29T09:13:53;101237.52;;;24.38;37.41
70555;BME280;58104;52.744;15.242;2022-07-29T09:16:18;101242.41;;;24.60;37.12
70555;BME280;58104;52.744;15.242;2022-07-29T09:18:45;101243.22;;;24.73;36.51
70555;BME280;58104;52.744;15.242;2022-07-29T09:21:10;101243.40;;;25.10;36.28
70555;BME280;58104;52.744;15.242;2022-07-29T09:23:34;101238.57;;;25.20;35.73
70555;BME280;58104;52.744;15.242;2022-07-29T09:26:05;101247.09;;;25.31;35.53
70555;BME280;58104;52.744;15.242;2022-07-29T09:28:25;101244.62;;;25.36;35.46
70555;BME280;58104;52.744;15.242;2022-07-29T09:30:51;101244.62;;;25.11;35.68
70555;BME280;58104;52.744;15.242;2022-07-29T09:33:16;101251.04;;;25.08;36.07
70555;BME280;58104;52.744;15.242;2022-07-29T09:35:41;101252.85;;;25.06;36.13
70555;BME280;58104;52.744;15.242;2022-07-29T09:38:10;101253.53;;;24.93;36.28
70555;BME280;58104;52.744;15.242;2022-07-29T09:40:32;101250.72;;;24.91;36.35
70555;BME280;58104;52.744;15.242;2022-07-29T09:42:57;101248.00;;;24.94;36.56
70555;BME280;58104;52.744;15.242;2022-07-29T09:45:28;101248.73;;;24.73;36.74
70555;BME280;58104;52.744;15.242;2022-07-29T09:47:48;101245.44;;;24.85;36.50
70555;BME280;58104;52.744;15.242;2022-07-29T09:50:13;101246.74;;;24.89;36.24
70555;BME280;58104;52.744;15.242;2022-07-29T09:52:45;101242.47;;;25.04;35.97
70555;BME280;58104;52.744;15.242;2022-07-29T09:55:05;101233.34;;;25.13;35.86
70555;BME280;58104;52.744;15.242;2022-07-29T09:57:29;101233.89;;;25.25;35.68
70555;BME280;58104;52.744;15.242;2022-07-29T09:59:57;101231.10;;;25.32;35.62
70555;BME280;58104;52.744;15.242;2022-07-29T10:02:20;101232.01;;;25.34;35.53
70555;BME280;58104;52.744;15.242;2022-07-29T10:04:45;101235.88;;;25.37;35.60
70555;BME280;58104;52.744;15.242;2022-07-29T10:07:11;101232.22;;;25.30;35.34
70555;BME280;58104;52.744;15.242;2022-07-29T10:09:36;101228.09;;;25.39;35.33
70555;BME280;58104;52.744;15.242;2022-07-29T10:12:07;101228.57;;;25.63;35.00
70555;BME280;58104;52.744;15.242;2022-07-29T10:14:27;101226.70;;;25.62;34.74
70555;BME280;58104;52.744;15.242;2022-07-29T10:16:52;101226.22;;;26.00;34.07
70555;BME280;58104;52.744;15.242;2022-07-29T10:19:17;101227.19;;;26.22;33.66
70555;BME280;58104;52.744;15.242;2022-07-29T10:21:42;101226.01;;;26.40;33.57
70555;BME280;58104;52.744;15.242;2022-07-29T10:24:09;101226.65;;;26.31;33.71
70555;BME280;58104;52.744;15.242;2022-07-29T10:26:33;101225.03;;;26.59;33.11
70555;BME280;58104;52.744;15.242;2022-07-29T10:28:58;101222.23;;;26.56;33.30
70555;BME280;58104;52.744;15.242;2022-07-29T10:31:28;101227.97;;;26.70;32.87
70555;BME280;58104;52.744;15.242;2022-07-29T10:33:58;101221.39;;;26.64;32.67
70555;BME280;58104;52.744;15.242;2022-07-29T10:36:24;101219.39;;;26.73;33.05
70555;BME280;58104;52.744;15.242;2022-07-29T10:38:45;101218.27;;;26.63;33.02
70555;BME280;58104;52.744;15.242;2022-07-29T10:41:16;101215.80;;;26.92;32.52
70555;BME280;58104;52.744;15.242;2022-07-29T10:43:33;101215.29;;;27.20;32.10
70555;BME280;58104;52.744;15.242;2022-07-29T10:45:57;101218.61;;;26.91;32.52
70555;BME280;58104;52.744;15.242;2022-07-29T10:48:22;101211.73;;;27.10;32.13
70555;BME280;58104;52.744;15.242;2022-07-29T10:50:51;101210.21;;;27.29;31.87
70555;BME280;58104;52.744;15.242;2022-07-29T10:53:12;101208.29;;;27.40;31.76
70555;BME280;58104;52.744;15.242;2022-07-29T10:55:38;101204.04;;;27.63;31.41
70555;BME280;58104;52.744;15.242;2022-07-29T10:58:11;101200.74;;;28.04;30.71
70555;BME280;58104;52.744;15.242;2022-07-29T11:00:30;101203.51;;;28.15;30.43
70555;BME280;58104;52.744;15.242;2022-07-29T11:02:53;101204.72;;;28.37;29.99
70555;BME280;58104;52.744;15.242;2022-07-29T11:05:20;101202.55;;;28.85;29.34
70555;BME280;58104;52.744;15.242;2022-07-29T11:10:21;101197.95;;;28.66;29.58
70555;BME280;58104;52.744;15.242;2022-07-29T11:15:00;101194.01;;;27.71;30.91
70555;BME280;58104;52.744;15.242;2022-07-29T11:17:26;101190.36;;;27.27;31.68
70555;BME280;58104;52.744;15.242;2022-07-29T11:19:51;101191.52;;;26.92;32.33
70555;BME280;58104;52.744;15.242;2022-07-29T11:24:42;101187.57;;;26.59;32.84
70555;BME280;58104;52.744;15.242;2022-07-29T11:27:14;101186.50;;;26.46;32.57
70555;BME280;58104;52.744;15.242;2022-07-29T11:29:32;101190.29;;;26.48;32.95
70555;BME280;58104;52.744;15.242;2022-07-29T11:32:10;101185.01;;;26.69;32.79
70555;BME280;58104;52.744;15.242;2022-07-29T11:34:26;101183.27;;;26.80;32.47
70555;BME280;58104;52.744;15.242;2022-07-29T11:41:39;101179.68;;;26.87;32.19
70555;BME280;58104;52.744;15.242;2022-07-29T11:48:56;101179.13;;;27.19;31.74
70555;BME280;58104;52.744;15.242;2022-07-29T11:51:20;101168.68;;;27.14;31.83
70555;BME280;58104;52.744;15.242;2022-07-29T11:53:47;101171.81;;;27.05;31.96
70555;BME280;58104;52.744;15.242;2022-07-29T11:56:13;101169.16;;;26.92;32.09
70555;BME280;58104;52.744;15.242;2022-07-29T11:58:37;101174.17;;;26.90;32.05
70555;BME280;58104;52.744;15.242;2022-07-29T12:01:02;101167.72;;;26.88;32.15
70555;BME280;58104;52.744;15.242;2022-07-29T12:03:28;101166.84;;;26.77;32.31
70555;BME280;58104;52.744;15.242;2022-07-29T12:05:52;101170.66;;;26.78;32.31
70555;BME280;58104;52.744;15.242;2022-07-29T12:08:20;101170.48;;;26.81;32.25
70555;BME280;58104;52.744;15.242;2022-07-29T12:10:43;101169.71;;;26.61;32.47
70555;BME280;58104;52.744;15.242;2022-07-29T12:13:10;101167.95;;;26.60;32.53
70555;BME280;58104;52.744;15.242;2022-07-29T12:15:34;101168.40;;;26.62;32.55
70555;BME280;58104;52.744;15.242;2022-07-29T12:20:27;101167.92;;;26.72;32.24
70555;BME280;58104;52.744;15.242;2022-07-29T12:22:50;101165.64;;;26.88;32.07
70555;BME280;58104;52.744;15.242;2022-07-29T12:25:16;101160.36;;;26.87;32.00
70555;BME280;58104;52.744;15.242;2022-07-29T12:27:41;101160.72;;;26.84;32.10
70555;BME280;58104;52.744;15.242;2022-07-29T12:30:07;101159.46;;;26.69;32.24
70555;BME280;58104;52.744;15.242;2022-07-29T12:32:32;101161.38;;;26.73;32.21
70555;BME280;58104;52.744;15.242;2022-07-29T12:34:57;101158.52;;;26.76;32.21
70555;BME280;58104;52.744;15.242;2022-07-29T12:37:22;101152.94;;;26.88;31.93
70555;BME280;58104;52.744;15.242;2022-07-29T12:39:47;101157.82;;;26.85;31.90
70555;BME280;58104;52.744;15.242;2022-07-29T12:42:14;101160.45;;;26.79;32.02
70555;BME280;58104;52.744;15.242;2022-07-29T12:44:43;101153.04;;;26.86;31.94
70555;BME280;58104;52.744;15.242;2022-07-29T12:47:04;101149.79;;;26.80;32.08
70555;BME280;58104;52.744;15.242;2022-07-29T12:49:28;101153.85;;;26.84;31.99
70555;BME280;58104;52.744;15.242;2022-07-29T12:51:54;101157.74;;;26.60;32.17
70555;BME280;58104;52.744;15.242;2022-07-29T12:54:19;101155.72;;;26.73;32.14